createdAt,value
2022-09-18T00:03:15.562Z,12.28
2022-09-18T00:08:17.717Z,11.90
2022-09-18T00:13:19.733Z,12.24
2022-09-18T00:18:21.849Z,11.89
2022-09-18T00:23:24.109Z,11.82
2022-09-18T00:28:26.428Z,11.79
2022-09-18T00:33:28.519Z,11.83
2022-09-18T00:38:32.054Z,12.19
2022-09-18T00:43:35.903Z,11.86
2022-09-18T00:48:46.007Z,11.78
2022-09-18T00:53:55.853Z,11.83
2022-09-18T00:58:58.899Z,11.64
2022-09-18T01:04:01.057Z,11.73
2022-09-18T01:09:25.119Z,11.73
2022-09-18T01:14:41.944Z,11.70
2022-09-18T01:20:31.841Z,11.81
2022-09-18T01:26:04.570Z,11.68
2022-09-18T01:31:14.434Z,11.49
2022-09-18T01:36:21.690Z,11.34
2022-09-18T01:41:27.843Z,11.22
2022-09-18T01:46:31.519Z,11.10
2022-09-18T01:51:50.551Z,11.00
2022-09-18T01:57:22.191Z,11.00
2022-09-18T02:02:38.302Z,11.00
2022-09-18T02:07:58.793Z,11.01
2022-09-18T02:13:03.621Z,10.82
2022-09-18T02:18:13.663Z,10.77
2022-09-18T02:23:16.986Z,10.67
2022-09-18T02:28:22.107Z,10.61
2022-09-18T02:33:35.185Z,10.56
2022-09-18T02:38:57.439Z,10.69
2022-09-18T02:44:14.247Z,10.64
2022-09-18T02:49:43.726Z,10.62
2022-09-18T02:54:54.931Z,10.49
2022-09-18T03:00:01.695Z,10.36
2022-09-18T03:05:06.714Z,10.29
2022-09-18T03:10:19.128Z,10.23
2022-09-18T03:15:22.381Z,10.23
2022-09-18T03:20:26.372Z,10.18
2022-09-18T03:25:28.547Z,10.12
2022-09-18T03:30:32.923Z,10.17
2022-09-18T03:35:35.198Z,10.10
2022-09-18T03:40:38.611Z,10.20
2022-09-18T03:45:41.516Z,10.30
2022-09-18T03:50:43.803Z,10.37
2022-09-18T03:55:47.175Z,10.44
2022-09-18T04:01:08.145Z,10.54
2022-09-18T04:06:30.119Z,10.63
2022-09-18T04:11:48.063Z,10.73
2022-09-18T04:16:50.203Z,10.82
2022-09-18T04:21:52.417Z,10.86
2022-09-18T04:26:56.723Z,10.95
2022-09-18T04:32:01.822Z,10.94
2022-09-18T04:37:08.147Z,11.08
2022-09-18T04:42:13.189Z,11.25
2022-09-18T04:47:15.955Z,11.51
2022-09-18T04:52:19.321Z,12.02
2022-09-18T04:57:21.497Z,12.80
2022-09-18T05:02:24.934Z,13.26
2022-09-18T05:07:28.114Z,13.83
2022-09-18T05:12:30.599Z,14.41
2022-09-18T05:17:33.149Z,15.12
2022-09-18T05:22:38.478Z,16.04
2022-09-18T05:27:53.774Z,16.64
2022-09-18T05:33:01.948Z,17.22
2022-09-18T05:38:06.579Z,17.63
2022-09-18T05:43:09.830Z,17.98
2022-09-18T05:48:13.296Z,19.40
2022-09-18T05:53:18.094Z,20.94
2022-09-18T05:58:28.466Z,21.05
2022-09-18T06:03:31.624Z,20.52
2022-09-18T06:08:36.365Z,21.35
2022-09-18T06:13:38.721Z,23.40
2022-09-18T06:18:41.140Z,24.67
2022-09-18T06:23:43.402Z,25.29
2022-09-18T06:29:00.175Z,24.20
2022-09-18T06:34:06.986Z,23.42
2022-09-18T06:39:09.078Z,23.81
2022-09-18T06:44:11.627Z,26.17
2022-09-18T06:49:24.041Z,27.68
2022-09-18T06:54:26.290Z,27.49
2022-09-18T06:59:30.147Z,26.69
2022-09-18T07:04:32.307Z,25.98
2022-09-18T07:09:35.011Z,26.17
2022-09-18T07:14:39.425Z,26.01
2022-09-18T07:19:44.876Z,26.13
2022-09-18T07:24:47.924Z,26.56
2022-09-18T07:29:50.078Z,26.73
2022-09-18T07:34:54.055Z,27.12
2022-09-18T07:40:07.377Z,26.57
2022-09-18T07:45:28.116Z,25.53
2022-09-18T07:50:31.896Z,24.13
2022-09-18T07:55:36.809Z,22.21
2022-09-18T08:00:39.586Z,21.60
2022-09-18T08:05:43.453Z,22.13
2022-09-18T08:10:45.739Z,22.35
2022-09-18T08:16:13.781Z,22.10
2022-09-18T08:21:42.159Z,22.15
2022-09-18T08:26:47.216Z,22.07
2022-09-18T08:31:49.597Z,22.14
2022-09-18T08:36:52.505Z,22.35
2022-09-18T08:42:26.332Z,22.55
2022-09-18T08:47:39.263Z,22.66
2022-09-18T08:52:49.078Z,22.97
2022-09-18T08:58:13.854Z,23.28
2022-09-18T09:03:33.778Z,22.62
2022-09-18T09:09:29.075Z,21.78
2022-09-18T09:14:57.650Z,21.02
2022-09-18T09:20:14.931Z,20.23
2022-09-18T09:25:27.113Z,20.08
2022-09-18T09:30:48.264Z,20.67
2022-09-18T09:36:13.971Z,20.77
2022-09-18T09:41:29.150Z,20.81
2022-09-18T09:47:09.184Z,20.75
2022-09-18T09:52:27.418Z,20.27
2022-09-18T09:58:03.558Z,19.84
2022-09-18T10:03:30.562Z,19.61
2022-09-18T10:08:54.255Z,19.16
2022-09-18T10:14:13.943Z,18.44
2022-09-18T10:19:20.735Z,18.04
2022-09-18T10:24:44.491Z,18.09
2022-09-18T10:29:46.921Z,17.73
2022-09-18T10:34:56.365Z,17.62
2022-09-18T10:40:01.491Z,17.71
2022-09-18T10:45:37.928Z,17.85
2022-09-18T10:51:04.442Z,17.84
2022-09-18T10:56:21.623Z,17.77
2022-09-18T11:01:27.512Z,17.66
2022-09-18T11:06:34.524Z,17.55
2022-09-18T11:11:59.049Z,17.37
2022-09-18T11:17:07.003Z,17.38
2022-09-18T11:22:36.273Z,17.61
2022-09-18T11:27:49.253Z,17.47
2022-09-18T11:32:58.001Z,17.38
2022-09-18T11:38:07.771Z,17.34
2022-09-18T11:43:22.366Z,17.27
2022-09-18T11:48:50.865Z,17.48
2022-09-18T11:54:04.538Z,16.92
2022-09-18T11:59:19.918Z,16.67
2022-09-18T12:04:43.905Z,16.64
2022-09-18T12:09:50.598Z,16.43
2022-09-18T12:15:13.906Z,16.55
2022-09-18T12:20:36.314Z,16.53
2022-09-18T12:25:45.750Z,16.54
2022-09-18T12:31:22.036Z,16.69
2022-09-18T12:36:49.315Z,16.83
2022-09-18T12:41:52.128Z,16.76
2022-09-18T12:47:28.071Z,16.99
2022-09-18T12:52:50.842Z,16.92
2022-09-18T12:58:14.088Z,16.81
2022-09-18T13:03:16.578Z,16.40
2022-09-18T13:08:24.471Z,16.35
2022-09-18T13:13:40.118Z,16.28
2022-09-18T13:18:53.448Z,16.33
2022-09-18T13:23:57.481Z,16.10
2022-09-18T13:28:59.890Z,16.03
2022-09-18T13:34:14.931Z,16.05
2022-09-18T13:39:23.116Z,15.77
2022-09-18T13:44:26.903Z,15.58
2022-09-18T13:49:33.656Z,15.50
2022-09-18T13:54:35.880Z,15.29
2022-09-18T13:59:59.365Z,15.36
2022-09-18T14:05:24.471Z,15.28
2022-09-18T14:10:33.011Z,15.21
2022-09-18T14:15:36.055Z,15.06
2022-09-18T14:20:38.321Z,15.06
2022-09-18T14:25:48.922Z,15.13
2022-09-18T14:31:29.637Z,15.21
2022-09-18T14:37:19.696Z,15.17
2022-09-18T14:42:40.990Z,14.93
2022-09-18T14:47:48.581Z,14.73
2022-09-18T14:52:51.169Z,14.60
2022-09-18T14:58:00.459Z,14.65
2022-09-18T15:03:07.846Z,14.57
2022-09-18T15:08:22.549Z,14.54
2022-09-18T15:13:32.446Z,14.43
2022-09-18T15:18:42.714Z,14.54
2022-09-18T15:23:45.396Z,14.47
2022-09-18T15:28:50.381Z,14.51
2022-09-18T15:34:08.929Z,14.58
2022-09-18T15:39:36.146Z,14.66
2022-09-18T15:44:38.395Z,14.41
2022-09-18T15:49:41.513Z,14.39
2022-09-18T15:55:05.101Z,14.58
2022-09-18T16:00:11.945Z,14.38
2022-09-18T16:05:18.275Z,14.36
2022-09-18T16:10:39.630Z,14.51
2022-09-18T16:15:47.532Z,14.30
2022-09-18T16:20:51.222Z,14.25
2022-09-18T16:26:11.051Z,14.44
2022-09-18T16:31:16.979Z,14.29
2022-09-18T16:36:27.943Z,14.35
2022-09-18T16:41:31.863Z,14.24
2022-09-18T16:46:48.208Z,14.31
2022-09-18T16:51:50.939Z,14.18
2022-09-18T16:57:00.552Z,14.23
2022-09-18T17:02:04.935Z,14.18
2022-09-18T17:07:08.344Z,14.11
2022-09-18T17:12:10.710Z,14.19
2022-09-18T17:17:13.729Z,14.16
2022-09-18T17:22:19.924Z,14.20
2022-09-18T17:27:25.994Z,14.18
2022-09-18T17:32:29.477Z,14.14
2022-09-18T17:37:32.317Z,14.13
2022-09-18T17:42:37.192Z,14.19
2022-09-18T17:47:40.142Z,14.14
2022-09-18T17:52:42.446Z,14.16
2022-09-18T17:57:49.780Z,14.13
2022-09-18T18:02:53.393Z,14.18
2022-09-18T18:07:55.782Z,14.17
2022-09-18T18:12:58.472Z,14.14
2022-09-18T18:18:03.658Z,14.11
2022-09-18T18:23:06.748Z,14.14
2022-09-18T18:28:13.347Z,14.13
2022-09-18T18:33:16.430Z,14.17
2022-09-18T18:38:20.576Z,14.21
2022-09-18T18:43:24.884Z,14.21
2022-09-18T18:48:29.619Z,14.22
2022-09-18T18:53:32.679Z,14.16
2022-09-18T18:58:35.383Z,14.21
2022-09-18T19:03:44.170Z,14.21
2022-09-18T19:08:47.760Z,14.25
2022-09-18T19:13:51.602Z,14.25
2022-09-18T19:18:58.840Z,14.31
2022-09-18T19:24:01.293Z,14.26
2022-09-18T19:29:07.184Z,14.28
2022-09-18T19:34:14.863Z,14.30
2022-09-18T19:39:19.788Z,14.24
2022-09-18T19:44:46.226Z,14.30
2022-09-18T19:49:51.115Z,14.18
2022-09-18T19:54:54.705Z,14.19
2022-09-18T19:59:58.658Z,14.13
2022-09-18T20:05:01.956Z,14.18
2022-09-18T20:10:13.329Z,14.31
2022-09-18T20:15:15.489Z,14.20
2022-09-18T20:20:17.705Z,14.17
2022-09-18T20:25:20.109Z,14.14
2022-09-18T20:30:22.226Z,14.11
2022-09-18T20:35:24.189Z,14.55
2022-09-18T20:40:26.527Z,14.25
2022-09-18T20:45:28.562Z,14.15
2022-09-18T20:50:30.455Z,14.52
2022-09-18T20:55:36.873Z,14.22
2022-09-18T21:00:39.029Z,14.26
2022-09-18T21:05:43.921Z,14.23
2022-09-18T21:10:48.875Z,14.22
2022-09-18T21:15:51.974Z,14.19
2022-09-18T21:21:05.398Z,14.28
2022-09-18T21:26:14.495Z,14.23
2022-09-18T21:31:20.200Z,14.16
2022-09-18T21:36:24.601Z,14.19
2022-09-18T21:41:26.789Z,14.24
2022-09-18T21:46:29.002Z,14.31
2022-09-18T21:51:31.160Z,14.35
2022-09-18T21:56:33.504Z,14.75
2022-09-18T22:01:36.301Z,14.40
2022-09-18T22:06:41.943Z,14.55
2022-09-18T22:11:45.367Z,14.45
2022-09-18T22:16:48.394Z,14.58
2022-09-18T22:21:51.570Z,14.60
2022-09-18T22:27:08.517Z,14.68
2022-09-18T22:32:10.927Z,14.65
2022-09-18T22:37:13.000Z,14.74
2022-09-18T22:42:14.997Z,15.13
2022-09-18T22:47:17.882Z,14.81
2022-09-18T22:52:19.806Z,15.13
2022-09-18T22:57:21.849Z,14.84
2022-09-18T23:02:25.084Z,14.70
2022-09-18T23:07:27.317Z,14.86
2022-09-18T23:12:29.442Z,14.90
2022-09-18T23:17:31.641Z,14.89
2022-09-18T23:22:33.967Z,14.93
2022-09-18T23:27:36.302Z,14.95
2022-09-18T23:32:38.475Z,14.99
2022-09-18T23:37:40.590Z,14.90
2022-09-18T23:42:42.894Z,15.01
2022-09-18T23:47:44.984Z,15.04
2022-09-18T23:52:47.122Z,15.06
2022-09-18T23:57:49.020Z,15.43
